Time;durP1;ratioP1;P1;durP2;ratioP2;P2;SDS_P1;SDS_P2;PMS_P1;PMS_P2;Temp;Humidity;BMP_temperature;BMP_pressure;BME280_temperature;BME280_humidity;BME280_pressure;Samples;Min_cycle;Max_cycle;Signal;HPM_P1;HPM_P2
2023/05/20 00:01:25;;;;;;;0.53;0.53;;;;;;;15.08;92.91;95577.53;5073640;28;20505;-61
2023/05/20 00:03:54;;;;;;;0.90;0.57;;;;;;;15.13;93.61;95583.59;5073290;28;20872;-60
2023/05/20 00:06:22;;;;;;;0.80;0.80;;;;;;;14.71;95.60;95589.03;5073858;28;20461;-60
2023/05/20 00:08:52;;;;;;;1.23;0.57;;;;;;;14.87;95.87;95584.28;5073041;28;20487;-60
2023/05/20 00:11:20;;;;;;;0.40;0.30;;;;;;;14.99;95.18;95572.06;5073915;28;20473;-60
2023/05/20 00:13:49;;;;;;;1.57;0.50;;;;;;;15.02;95.66;95587.50;5047433;28;20444;-60
2023/05/20 00:16:17;;;;;;;0.50;0.30;;;;;;;15.12;94.18;95576.69;5073680;28;20444;-61
2023/05/20 00:18:46;;;;;;;0.53;0.40;;;;;;;15.04;95.79;95580.00;5073275;28;20974;-61
2023/05/20 00:21:14;;;;;;;0.50;0.40;;;;;;;14.74;94.97;95566.31;5073019;28;20992;-62
2023/05/20 00:23:42;;;;;;;1.47;0.63;;;;;;;14.28;99.59;95563.44;5073693;28;20437;-61
2023/05/20 00:26:12;;;;;;;5.27;0.80;;;;;;;14.35;99.47;95572.69;5073478;28;20980;-61
2023/05/20 00:28:41;;;;;;;0.63;0.63;;;;;;;14.46;100.00;95574.16;5073743;28;20441;-61
2023/05/20 00:31:09;;;;;;;0.57;0.50;;;;;;;14.78;96.73;95575.31;5073375;28;20433;-61
2023/05/20 00:33:37;;;;;;;0.60;0.50;;;;;;;14.59;95.73;95570.00;5073752;28;20813;-61
2023/05/20 00:36:06;;;;;;;2.57;1.20;;;;;;;14.31;99.06;95570.91;5072997;28;20794;-61
2023/05/20 00:38:35;;;;;;;0.40;0.30;;;;;;;14.39;97.75;95568.41;5073134;28;20973;-61
2023/05/20 00:41:03;;;;;;;0.83;0.83;;;;;;;14.24;99.82;95570.44;5073154;28;20440;-61
2023/05/20 00:43:33;;;;;;;2.00;0.70;;;;;;;13.87;100.00;95571.09;5073266;28;20438;-61
2023/05/20 00:46:01;;;;;;;0.97;0.90;;;;;;;14.03;100.00;95575.19;5072901;28;20438;-61
2023/05/20 00:48:37;;;;;;;0.50;0.43;;;;;;;14.01;100.00;95572.03;5073154;28;20449;-61
2023/05/20 00:51:06;;;;;;;0.40;0.30;;;;;;;14.07;100.00;95572.75;5072861;28;20508;-61
2023/05/20 00:53:36;;;;;;;0.40;0.30;;;;;;;14.11;100.00;95579.09;5073002;28;20450;-61
2023/05/20 00:56:05;;;;;;;2.50;1.33;;;;;;;14.09;100.00;95559.94;5072781;28;20456;-61
2023/05/20 00:58:36;;;;;;;2.70;0.67;;;;;;;13.97;100.00;95571.78;5071445;28;20946;-61
2023/05/20 01:01:05;;;;;;;0.80;0.70;;;;;;;13.81;100.00;95565.03;5073012;28;21146;-61
2023/05/20 01:03:34;;;;;;;0.97;0.90;;;;;;;13.57;100.00;95574.09;5072641;28;20477;-61
2023/05/20 01:06:03;;;;;;;0.90;0.90;;;;;;;13.45;100.00;95574.47;5072516;28;20520;-61
2023/05/20 01:08:33;;;;;;;2.93;0.60;;;;;;;13.53;100.00;95576.53;5072311;28;20862;-61
2023/05/20 01:11:06;;;;;;;2.07;0.53;;;;;;;13.74;100.00;95569.09;5061813;28;20798;-61
2023/05/20 01:13:43;;;;;;;1.03;1.03;;;;;;;13.74;100.00;95572.56;5071318;28;20440;-61
2023/05/20 01:16:15;;;;;;;0.60;0.57;;;;;;;13.62;100.00;95569.50;5070737;28;20433;-61
2023/05/20 01:18:44;;;;;;;3.27;1.73;;;;;;;13.40;100.00;95555.88;5072403;28;20480;-62
2023/05/20 01:21:15;;;;;;;3.13;1.37;;;;;;;13.19;100.00;95559.78;5072304;28;20499;-61
2023/05/20 01:23:45;;;;;;;1.70;1.60;;;;;;;13.16;100.00;95561.13;5072816;28;20542;-61
2023/05/20 01:26:13;;;;;;;2.30;2.10;;;;;;;13.31;100.00;95552.22;5072101;28;20508;-61
2023/05/20 01:28:43;;;;;;;1.00;0.90;;;;;;;13.10;100.00;95534.84;5062512;28;20438;-61
2023/05/20 01:31:18;;;;;;;2.20;1.10;;;;;;;13.01;100.00;95541.81;5068925;28;20429;-61
2023/05/20 01:33:51;;;;;;;1.63;1.00;;;;;;;13.10;100.00;95542.84;5072278;28;20436;-61
2023/05/20 01:36:21;;;;;;;2.10;2.00;;;;;;;12.92;100.00;95546.16;5071985;28;20469;-61
2023/05/20 01:38:51;;;;;;;0.80;0.70;;;;;;;13.13;100.00;95552.94;5072244;28;20433;-61
2023/05/20 01:41:21;;;;;;;1.03;0.77;;;;;;;13.10;100.00;95540.19;5046707;28;20437;-61
2023/05/20 01:43:49;;;;;;;0.90;0.90;;;;;;;13.34;100.00;95539.16;5071407;28;20538;-61
2023/05/20 01:46:18;;;;;;;1.70;0.43;;;;;;;13.50;100.00;95542.47;5072080;28;20438;-61
2023/05/20 01:48:46;;;;;;;1.07;0.50;;;;;;;13.40;100.00;95539.91;5071693;28;20445;-61
2023/05/20 01:51:15;;;;;;;0.80;0.80;;;;;;;13.69;100.00;95553.19;5072435;28;20861;-61
2023/05/20 01:53:43;;;;;;;0.63;0.30;;;;;;;13.91;100.00;95546.28;5071823;28;20442;-61
2023/05/20 01:56:13;;;;;;;0.70;0.70;;;;;;;13.95;100.00;95543.84;5071535;28;20973;-61
2023/05/20 01:58:41;;;;;;;0.47;0.40;;;;;;;13.76;100.00;95545.66;5068692;28;20442;-62
2023/05/20 02:01:10;;;;;;;0.63;0.53;;;;;;;13.68;100.00;95515.13;5061873;28;20434;-61
2023/05/20 02:03:38;;;;;;;0.70;0.50;;;;;;;14.06;100.00;95539.19;5071521;28;20481;-61
2023/05/20 02:06:07;;;;;;;0.40;0.30;;;;;;;13.73;100.00;95549.69;5072013;28;20441;-61
2023/05/20 02:08:35;;;;;;;0.50;0.40;;;;;;;13.61;100.00;95538.59;5071331;28;20482;-62
2023/05/20 02:11:03;;;;;;;0.53;0.30;;;;;;;13.86;100.00;95546.31;5071802;28;20440;-62
2023/05/20 02:13:33;;;;;;;0.50;0.43;;;;;;;13.80;100.00;95542.16;5071459;28;20442;-62
2023/05/20 02:16:02;;;;;;;0.50;0.30;;;;;;;13.84;100.00;95545.81;5071100;28;20491;-62
2023/05/20 02:18:31;;;;;;;0.50;0.40;;;;;;;13.61;100.00;95540.50;5071090;28;20472;-61
2023/05/20 02:21:02;;;;;;;0.40;0.30;;;;;;;13.55;100.00;95523.78;5071414;28;20445;-61
2023/05/20 02:23:31;;;;;;;0.40;0.37;;;;;;;13.53;100.00;95533.91;5071480;28;20559;-62
2023/05/20 02:26:00;;;;;;;0.50;0.40;;;;;;;12.96;100.00;95533.88;5071498;28;20445;-61
2023/05/20 02:28:28;;;;;;;0.97;0.97;;;;;;;12.84;100.00;95536.88;5071462;28;21048;-61
2023/05/20 02:30:58;;;;;;;1.10;0.60;;;;;;;12.66;100.00;95545.53;5071096;28;21022;-61
2023/05/20 02:33:27;;;;;;;0.50;0.40;;;;;;;12.84;100.00;95536.88;5071849;28;20445;-61
2023/05/20 02:35:56;;;;;;;1.03;0.40;;;;;;;13.06;100.00;95539.09;5071848;28;20438;-61
2023/05/20 02:38:25;;;;;;;0.40;0.30;;;;;;;13.32;100.00;95540.50;5071641;28;20438;-61
2023/05/20 02:40:53;;;;;;;1.03;1.03;;;;;;;13.50;100.00;95531.81;5073009;28;20456;-61
2023/05/20 02:43:22;;;;;;;3.90;0.67;;;;;;;13.50;100.00;95539.81;5075797;28;20901;-61
2023/05/20 02:45:50;;;;;;;0.50;0.30;;;;;;;13.31;100.00;95538.91;5075158;28;20437;-61
2023/05/20 02:48:20;;;;;;;0.80;0.30;;;;;;;13.48;100.00;95549.94;5075472;28;20476;-61
2023/05/20 02:50:48;;;;;;;1.63;1.53;;;;;;;13.00;100.00;95542.91;5075427;28;20434;-61
2023/05/20 02:53:16;;;;;;;0.50;0.43;;;;;;;13.22;100.00;95544.06;5075291;28;20858;-61
2023/05/20 02:55:47;;;;;;;1.13;0.40;;;;;;;12.92;100.00;95483.09;5075103;28;20506;-61
2023/05/20 02:58:16;;;;;;;0.40;0.30;;;;;;;13.43;100.00;95558.00;5075530;28;20523;-61
2023/05/20 03:00:44;;;;;;;0.50;0.50;;;;;;;13.47;100.00;95556.34;5075188;28;20465;-61
2023/05/20 03:03:13;;;;;;;2.30;0.70;;;;;;;13.27;100.00;95562.66;5074966;28;20461;-61
2023/05/20 03:05:44;;;;;;;0.70;0.70;;;;;;;13.08;100.00;95563.63;5074547;28;20434;-61
2023/05/20 03:08:13;;;;;;;0.80;0.80;;;;;;;12.98;100.00;95574.31;5075012;28;20441;-61
2023/05/20 03:10:42;;;;;;;0.80;0.63;;;;;;;12.75;100.00;95581.09;5074949;28;20441;-61
2023/05/20 03:13:10;;;;;;;1.17;0.90;;;;;;;12.62;100.00;95573.75;5075033;28;20491;-61
2023/05/20 03:15:39;;;;;;;0.57;0.57;;;;;;;12.39;100.00;95583.19;5075033;28;20438;-61
2023/05/20 03:18:08;;;;;;;2.40;0.77;;;;;;;12.28;100.00;95589.59;5074758;28;20433;-61
2023/05/20 03:20:37;;;;;;;0.50;0.50;;;;;;;11.82;100.00;95535.06;5075085;28;20529;-61
2023/05/20 03:23:07;;;;;;;0.60;0.60;;;;;;;12.27;100.00;95580.03;5074406;28;20532;-61
2023/05/20 03:25:36;;;;;;;0.60;0.50;;;;;;;12.43;100.00;95584.22;5074935;28;20444;-61
2023/05/20 03:28:05;;;;;;;0.70;0.50;;;;;;;12.19;100.00;95530.13;5073804;28;20927;-61
2023/05/20 03:30:34;;;;;;;0.67;0.67;;;;;;;12.67;100.00;95576.38;5074551;28;20429;-61
2023/05/20 03:33:04;;;;;;;0.97;0.67;;;;;;;12.60;100.00;95589.97;5074132;28;20444;-61
2023/05/20 03:35:33;;;;;;;0.50;0.47;;;;;;;12.79;100.00;95592.78;5074350;28;20483;-61
2023/05/20 03:38:01;;;;;;;0.40;0.30;;;;;;;13.05;100.00;95588.88;5074583;28;20438;-61
2023/05/20 03:40:31;;;;;;;0.90;0.60;;;;;;;13.23;100.00;95585.56;5074529;28;20472;-60
2023/05/20 03:42:59;;;;;;;0.70;0.70;;;;;;;13.34;100.00;95586.28;5074192;28;20821;-60
2023/05/20 03:45:28;;;;;;;0.60;0.50;;;;;;;13.39;100.00;95588.88;5074549;28;20445;-61
2023/05/20 03:47:56;;;;;;;0.60;0.53;;;;;;;13.09;100.00;95543.91;5074651;28;20472;-61
2023/05/20 03:50:24;;;;;;;0.70;0.70;;;;;;;13.54;100.00;95599.41;5073927;28;20433;-60
2023/05/20 03:52:53;;;;;;;0.40;0.30;;;;;;;13.61;100.00;95605.19;5073407;28;20449;-61
2023/05/20 03:55:21;;;;;;;0.40;0.30;;;;;;;13.42;100.00;95593.66;5073844;28;20498;-56
2023/05/20 03:57:51;;;;;;;0.50;0.40;;;;;;;13.71;100.00;95596.34;5073908;28;20433;-56
2023/05/20 04:00:19;;;;;;;0.77;0.77;;;;;;;13.45;100.00;95600.28;5074020;28;20441;-60
2023/05/20 04:02:48;;;;;;;2.40;1.40;;;;;;;12.91;100.00;95603.06;5073998;28;20481;-59
2023/05/20 04:05:16;;;;;;;0.70;0.50;;;;;;;13.21;100.00;95587.72;5073410;28;20474;-59
2023/05/20 04:07:45;;;;;;;1.33;1.07;;;;;;;13.52;100.00;95593.56;5073691;28;20445;-58
2023/05/20 04:10:13;;;;;;;2.23;0.77;;;;;;;13.84;100.00;95591.13;5073431;28;20438;-58
2023/05/20 04:12:42;;;;;;;1.30;1.00;;;;;;;14.02;100.00;95593.06;5074024;28;20442;-58
2023/05/20 04:15:13;;;;;;;0.50;0.30;;;;;;;14.13;100.00;95593.75;5073529;28;20525;-58
2023/05/20 04:17:42;;;;;;;2.00;0.60;;;;;;;14.17;100.00;95583.28;5073218;28;20438;-58
2023/05/20 04:20:11;;;;;;;0.90;0.50;;;;;;;14.23;100.00;95590.94;5072441;28;20495;-58
2023/05/20 04:22:40;;;;;;;0.93;0.93;;;;;;;14.18;100.00;95598.22;5073307;28;20444;-58
2023/05/20 04:25:09;;;;;;;0.50;0.50;;;;;;;14.35;100.00;95593.22;5073413;28;20896;-59
2023/05/20 04:27:38;;;;;;;0.50;0.50;;;;;;;14.30;100.00;95582.59;5072608;28;21172;-58
2023/05/20 04:30:08;;;;;;;0.73;0.73;;;;;;;14.35;100.00;95590.56;5073050;28;20441;-58
2023/05/20 04:32:38;;;;;;;0.40;0.30;;;;;;;14.23;100.00;95592.81;5071410;28;20445;-57
2023/05/20 04:35:10;;;;;;;0.40;0.30;;;;;;;14.27;100.00;95591.19;5062883;28;20442;-58
2023/05/20 04:37:41;;;;;;;0.40;0.30;;;;;;;14.28;100.00;95596.22;5073107;28;20433;-58
2023/05/20 04:40:11;;;;;;;1.40;0.90;;;;;;;14.11;100.00;95597.75;5073339;28;20437;-58
2023/05/20 04:42:39;;;;;;;1.10;1.00;;;;;;;14.36;100.00;95592.16;5072943;28;20446;-57
2023/05/20 04:45:08;;;;;;;0.40;0.30;;;;;;;14.25;100.00;95595.97;5073184;28;20822;-58
2023/05/20 04:47:38;;;;;;;0.97;0.97;;;;;;;14.23;100.00;95595.47;5072923;28;20473;-57
2023/05/20 04:50:09;;;;;;;4.93;0.50;;;;;;;14.04;100.00;95607.97;5073283;28;20444;-58
2023/05/20 04:52:38;;;;;;;0.93;0.30;;;;;;;13.95;100.00;95607.78;5072867;28;20515;-57
2023/05/20 04:55:08;;;;;;;2.17;0.90;;;;;;;13.80;100.00;95607.94;5072881;28;20958;-57
2023/05/20 04:57:38;;;;;;;1.40;1.03;;;;;;;13.88;100.00;95600.16;5072984;28;20434;-57
2023/05/20 05:00:08;;;;;;;1.03;0.50;;;;;;;14.29;100.00;95584.50;5072447;28;20437;-57
2023/05/20 05:02:38;;;;;;;1.97;1.87;;;;;;;13.89;100.00;95524.44;5072749;28;20460;-57
2023/05/20 05:05:07;;;;;;;2.27;2.13;;;;;;;14.07;100.00;95589.53;5071553;28;20878;-57
2023/05/20 05:07:36;;;;;;;0.70;0.37;;;;;;;14.19;100.00;95597.16;5072500;28;20440;-57
2023/05/20 05:10:05;;;;;;;0.80;0.70;;;;;;;13.47;100.00;95592.81;5072477;28;20441;-57
2023/05/20 05:12:33;;;;;;;2.97;1.60;;;;;;;13.02;100.00;95594.75;5072609;28;20455;-57
2023/05/20 05:15:02;;;;;;;1.27;1.17;;;;;;;12.86;100.00;95598.59;5072204;28;20438;-57
2023/05/20 05:17:30;;;;;;;2.60;1.60;;;;;;;12.90;100.00;95604.16;5072482;28;20442;-58
2023/05/20 05:20:00;;;;;;;1.43;1.33;;;;;;;13.53;100.00;95592.50;5072689;28;20487;-57
2023/05/20 05:22:28;;;;;;;3.60;1.13;;;;;;;13.65;100.00;95592.91;5072864;28;20437;-57
2023/05/20 05:24:57;;;;;;;2.13;1.80;;;;;;;13.42;100.00;95527.09;5072340;28;20473;-56
2023/05/20 05:27:26;;;;;;;1.47;1.37;;;;;;;14.00;100.00;95573.09;5072126;28;20878;-57
2023/05/20 05:29:54;;;;;;;4.47;2.73;;;;;;;13.82;100.00;95585.28;5046321;28;20445;-57
2023/05/20 05:32:22;;;;;;;2.00;1.90;;;;;;;14.68;100.00;95578.13;5072559;28;20441;-56
2023/05/20 05:34:51;;;;;;;0.67;0.67;;;;;;;14.69;100.00;95583.19;5071950;28;20520;-56
2023/05/20 05:37:21;;;;;;;2.53;1.07;;;;;;;14.42;100.00;95596.38;5071315;28;20441;-57
2023/05/20 05:39:49;;;;;;;2.23;1.50;;;;;;;14.04;100.00;95582.09;5071778;28;21030;-57
2023/05/20 05:42:17;;;;;;;1.03;0.90;;;;;;;14.72;100.00;95577.28;5071858;28;20453;-59
2023/05/20 05:44:46;;;;;;;1.10;0.93;;;;;;;15.28;100.00;95569.19;5072411;28;20481;-58
2023/05/20 05:47:14;;;;;;;0.57;0.57;;;;;;;15.42;100.00;95580.72;5071580;28;20507;-59
2023/05/20 05:49:43;;;;;;;2.20;1.27;;;;;;;15.80;100.00;95574.22;5071934;28;20472;-58
2023/05/20 05:52:11;;;;;;;1.30;0.47;;;;;;;16.37;100.00;95569.34;5071487;28;20465;-58
2023/05/20 05:54:41;;;;;;;0.70;0.53;;;;;;;16.55;96.28;95535.53;5072338;28;20440;-58
2023/05/20 05:57:10;;;;;;;1.17;1.00;;;;;;;16.69;91.86;95560.41;5071482;28;20941;-58
2023/05/20 05:59:39;;;;;;;0.83;0.83;;;;;;;16.81;90.25;95544.59;5071952;28;20445;-58
2023/05/20 06:02:09;;;;;;;1.63;1.53;;;;;;;16.45;90.77;95564.09;5071980;28;20433;-58
2023/05/20 06:04:37;;;;;;;1.50;0.90;;;;;;;16.09;94.33;95568.56;5072048;28;20543;-58
2023/05/20 06:07:05;;;;;;;1.33;1.23;;;;;;;15.57;96.26;95561.00;5071410;28;20445;-58
2023/05/20 06:09:34;;;;;;;3.03;1.67;;;;;;;16.26;95.97;95554.59;5071703;28;20446;-59
2023/05/20 06:12:04;;;;;;;0.93;0.47;;;;;;;16.36;94.13;95565.91;5071198;28;20827;-58
2023/05/20 06:14:33;;;;;;;2.43;1.63;;;;;;;16.58;92.46;95556.34;5071741;28;20442;-58
2023/05/20 06:17:01;;;;;;;0.70;0.67;;;;;;;16.74;91.17;95557.63;5071292;28;20982;-58
2023/05/20 06:19:30;;;;;;;3.13;1.23;;;;;;;17.53;88.15;95553.34;5071199;28;20449;-58
2023/05/20 06:21:58;;;;;;;1.17;0.77;;;;;;;17.14;84.04;95557.47;5071937;28;20438;-59
2023/05/20 06:24:27;;;;;;;3.87;0.60;;;;;;;18.00;82.89;95554.50;5071311;28;20444;-59
2023/05/20 06:26:55;;;;;;;0.60;0.60;;;;;;;18.49;82.11;95553.44;5071435;28;20544;-59
2023/05/20 06:29:25;;;;;;;0.70;0.50;;;;;;;17.91;77.91;95553.69;5071456;28;20506;-59
2023/05/20 06:31:53;;;;;;;1.33;1.23;;;;;;;18.55;78.82;95550.28;5071411;28;20437;-59
2023/05/20 06:34:21;;;;;;;0.70;0.70;;;;;;;18.84;77.14;95544.31;5071326;28;20473;-60
2023/05/20 06:36:50;;;;;;;0.70;0.50;;;;;;;19.66;75.18;95535.25;5070117;28;20442;-60
2023/05/20 06:39:18;;;;;;;0.77;0.77;;;;;;;19.67;74.15;95540.28;5071235;28;20433;-60
2023/05/20 06:41:46;;;;;;;0.73;0.63;;;;;;;19.73;73.98;95532.84;5071323;28;20438;-60
2023/05/20 06:44:14;;;;;;;0.87;0.87;;;;;;;20.03;73.83;95526.41;5071040;28;20433;-60
2023/05/20 06:46:44;;;;;;;4.57;1.50;;;;;;;19.74;70.07;95529.03;5070948;28;20473;-60
2023/05/20 06:49:13;;;;;;;1.53;1.43;;;;;;;20.55;71.12;95518.84;5071230;28;20444;-60
2023/05/20 06:51:42;;;;;;;0.83;0.83;;;;;;;20.65;68.72;95511.19;5071423;28;20473;-60
2023/05/20 06:54:11;;;;;;;0.63;0.53;;;;;;;21.09;65.98;95504.38;5070877;28;20791;-60
2023/05/20 06:56:39;;;;;;;0.83;0.70;;;;;;;21.60;65.40;95499.59;5071473;28;20448;-60
2023/05/20 06:59:08;;;;;;;0.80;0.80;;;;;;;21.76;64.24;95490.50;5071326;28;20433;-60
2023/05/20 07:01:36;;;;;;;0.97;0.87;;;;;;;21.62;62.91;95490.03;5071069;28;20440;-60
2023/05/20 07:04:06;;;;;;;0.60;0.60;;;;;;;21.63;61.77;95490.81;5071063;28;20437;-60
2023/05/20 07:06:35;;;;;;;0.70;0.50;;;;;;;22.13;60.17;95483.25;5070819;28;20472;-59
2023/05/20 07:09:04;;;;;;;0.60;0.60;;;;;;;22.28;59.65;95458.25;5071201;28;20441;-59
2023/05/20 07:11:32;;;;;;;0.40;0.30;;;;;;;22.35;59.52;95474.69;5070634;28;20451;-59
2023/05/20 07:14:00;;;;;;;0.97;0.97;;;;;;;22.31;59.92;95408.97;5071009;28;20441;-59
2023/05/20 07:16:31;;;;;;;0.83;0.83;;;;;;;22.90;62.04;95457.78;5070935;28;20441;-59
2023/05/20 07:18:59;;;;;;;2.20;0.93;;;;;;;22.56;59.68;95463.72;5071177;28;20438;-59
2023/05/20 07:21:29;;;;;;;3.20;1.30;;;;;;;21.51;61.78;95461.91;5070978;28;20430;-59
2023/05/20 07:23:57;;;;;;;3.97;2.47;;;;;;;21.60;64.55;95475.31;5071014;28;20485;-58
2023/05/20 07:26:25;;;;;;;4.80;1.63;;;;;;;21.26;62.76;95463.75;5070179;28;20492;-58
2023/05/20 07:28:54;;;;;;;1.37;1.33;;;;;;;21.47;64.21;95466.41;5072994;28;20437;-59
2023/05/20 07:31:23;;;;;;;1.67;0.50;;;;;;;21.78;64.23;95460.50;5073905;28;20950;-60
2023/05/20 07:33:51;;;;;;;1.33;0.67;;;;;;;22.16;64.38;95457.50;5074677;28;20739;-61
2023/05/20 07:36:19;;;;;;;1.30;1.20;;;;;;;21.78;62.13;95449.69;5074366;28;20440;-63
2023/05/20 07:38:49;;;;;;;0.43;0.40;;;;;;;22.59;61.57;95447.59;5074012;28;20441;-64
2023/05/20 07:41:31;;;;;;;6.53;0.97;;;;;;;22.46;61.37;95454.19;5073493;28;20954;-63
2023/05/20 07:43:59;;;;;;;1.57;1.47;;;;;;;22.07;62.04;95453.00;5073177;28;21001;-64
2023/05/20 07:46:28;;;;;;;0.50;0.50;;;;;;;23.08;60.61;95448.25;5073268;28;20483;-64
2023/05/20 07:48:56;;;;;;;1.73;1.00;;;;;;;23.49;57.63;95436.25;5072955;28;20426;-66
2023/05/20 07:51:24;;;;;;;0.73;0.40;;;;;;;23.60;58.97;95437.31;5074082;28;20437;-66
2023/05/20 07:53:54;;;;;;;1.70;1.20;;;;;;;23.82;56.93;95428.56;5074113;28;20471;-67
2023/05/20 07:56:23;;;;;;;8.33;1.47;;;;;;;24.34;59.61;95432.88;5074443;28;20467;-65
2023/05/20 07:58:57;;;;;;;0.47;0.47;;;;;;;24.46;58.80;95417.28;5073974;28;20434;-64
2023/05/20 08:01:26;;;;;;;3.93;2.20;;;;;;;24.21;54.93;95420.59;5074076;28;20475;-62
2023/05/20 08:03:54;;;;;;;0.87;0.87;;;;;;;24.49;54.85;95426.63;5073988;28;20429;-62
2023/05/20 08:06:24;;;;;;;0.57;0.50;;;;;;;24.99;53.98;95425.75;5073263;28;20507;-62
2023/05/20 08:08:57;;;;;;;2.90;1.00;;;;;;;24.22;56.15;95424.84;5073902;28;20930;-62
2023/05/20 08:11:26;;;;;;;2.43;1.13;;;;;;;24.75;53.56;95424.06;5073494;28;20471;-63
2023/05/20 08:13:54;;;;;;;1.70;0.57;;;;;;;24.57;55.95;95428.34;5073272;28;20442;-61
2023/05/20 08:16:25;;;;;;;1.60;1.50;;;;;;;23.94;55.81;95425.75;5073587;28;20547;-63
2023/05/20 08:18:54;;;;;;;1.03;0.93;;;;;;;23.37;56.81;95425.50;5073814;28;20444;-62
2023/05/20 08:21:22;;;;;;;0.63;0.60;;;;;;;22.95;58.55;95421.59;5073210;28;20436;-62
2023/05/20 08:23:50;;;;;;;0.70;0.70;;;;;;;23.88;56.10;95415.56;5073517;28;20508;-63
2023/05/20 08:26:20;;;;;;;0.97;0.97;;;;;;;23.73;56.93;95410.94;5073097;28;21012;-63
2023/05/20 08:28:49;;;;;;;2.60;1.70;;;;;;;23.50;55.59;95408.06;5072594;28;20441;-63
2023/05/20 08:31:17;;;;;;;1.43;0.80;;;;;;;23.30;56.55;95409.06;5073257;28;20828;-64
2023/05/20 08:33:46;;;;;;;1.00;0.70;;;;;;;23.92;56.04;95397.47;5073332;28;20437;-63
2023/05/20 08:36:14;;;;;;;1.33;1.00;;;;;;;23.51;56.62;95387.97;5072733;28;20437;-62
2023/05/20 08:38:43;;;;;;;0.60;0.50;;;;;;;24.90;55.72;95400.78;5073017;28;20450;-63
2023/05/20 08:41:11;;;;;;;1.17;1.17;;;;;;;26.07;53.80;95390.03;5072982;28;20440;-63
2023/05/20 08:43:41;;;;;;;1.70;0.70;;;;;;;25.88;53.57;95383.53;5073450;28;20524;-64
2023/05/20 08:46:10;;;;;;;1.03;1.03;;;;;;;25.79;53.98;95379.50;5072929;28;20548;-63
2023/05/20 08:48:39;;;;;;;0.70;0.70;;;;;;;26.09;51.11;95379.56;5072488;28;20812;-64
2023/05/20 08:51:10;;;;;;;0.97;0.83;;;;;;;26.45;49.98;95385.19;5073109;28;20450;-63
2023/05/20 08:53:38;;;;;;;3.80;1.20;;;;;;;26.98;48.92;95391.28;5072729;28;20452;-63
2023/05/20 08:56:08;;;;;;;13.43;2.67;;;;;;;26.69;48.77;95343.13;5072729;28;20449;-62
2023/05/20 08:58:36;;;;;;;2.00;1.90;;;;;;;26.41;48.30;95389.00;5072454;28;20968;-62
2023/05/20 09:01:07;;;;;;;1.37;1.37;;;;;;;25.89;50.18;95381.63;5072624;28;20442;-61
2023/05/20 09:03:35;;;;;;;1.53;1.43;;;;;;;24.60;50.41;95385.06;5072657;28;20824;-61
2023/05/20 09:06:05;;;;;;;1.40;0.97;;;;;;;24.28;51.75;95374.69;5072419;28;20491;-60
2023/05/20 09:08:34;;;;;;;0.83;0.83;;;;;;;25.05;48.92;95375.50;5072366;28;20479;-62
2023/05/20 09:11:02;;;;;;;1.13;1.03;;;;;;;25.56;48.28;95365.97;5073074;28;20449;-62
2023/05/20 09:13:32;;;;;;;0.40;0.30;;;;;;;26.33;46.80;95360.94;5072422;28;20942;-62
2023/05/20 09:16:01;;;;;;;0.80;0.60;;;;;;;24.59;48.92;95348.25;5072537;28;20437;-61
2023/05/20 09:18:31;;;;;;;4.17;0.70;;;;;;;24.87;49.10;95364.31;5072465;28;20438;-61
2023/05/20 09:21:05;;;;;;;1.00;1.00;;;;;;;25.23;48.29;95365.75;5072330;28;20438;-61
2023/05/20 09:23:36;;;;;;;0.40;0.40;;;;;;;25.12;48.25;95367.50;5040200;28;20441;-60
2023/05/20 09:26:05;;;;;;;1.23;1.17;;;;;;;24.28;49.81;95370.06;5067443;28;20438;-61
2023/05/20 09:28:37;;;;;;;0.50;0.50;;;;;;;24.47;50.48;95372.78;5071857;28;20469;-61
2023/05/20 09:31:05;;;;;;;4.70;3.07;;;;;;;24.42;50.96;95367.66;5072478;28;20445;-63
2023/05/20 09:33:37;;;;;;;0.73;0.73;;;;;;;24.01;48.31;95368.25;5072663;28;20542;-63
2023/05/20 09:36:08;;;;;;;0.97;0.97;;;;;;;23.77;48.58;95357.66;5072018;28;21024;-63
2023/05/20 09:38:38;;;;;;;0.73;0.70;;;;;;;23.56;48.97;95355.25;5071993;28;20441;-62
2023/05/20 09:41:08;;;;;;;0.60;0.60;;;;;;;23.50;47.36;95345.84;5072119;28;20487;-61
2023/05/20 09:43:36;;;;;;;0.63;0.57;;;;;;;23.52;47.56;95348.19;5071934;28;20514;-61
2023/05/20 09:46:05;;;;;;;0.50;0.47;;;;;;;24.15;46.89;95338.03;5071725;28;20437;-61
2023/05/20 09:48:36;;;;;;;0.47;0.40;;;;;;;24.81;47.88;95322.38;5071719;28;20437;-61
2023/05/20 09:51:06;;;;;;;0.87;0.77;;;;;;;24.82;45.25;95302.25;5045916;28;20469;-62
2023/05/20 09:53:34;;;;;;;2.30;0.67;;;;;;;24.82;45.54;95318.50;5071316;28;20441;-62
2023/05/20 09:56:03;;;;;;;3.23;0.50;;;;;;;24.55;44.90;95300.53;5071599;28;20448;-63
2023/05/20 09:58:34;;;;;;;0.53;0.50;;;;;;;24.40;44.75;95317.66;5071010;28;20444;-63
2023/05/20 10:01:02;;;;;;;0.50;0.50;;;;;;;24.57;44.35;95309.09;5071261;28;20922;-63
2023/05/20 10:03:32;;;;;;;0.40;0.30;;;;;;;24.90;43.63;95303.94;5071234;28;20442;-62
2023/05/20 10:06:40;;;;;;;0.60;0.50;;;;;;;25.67;43.67;95311.84;5071739;28;20507;-63
2023/05/20 10:09:24;;;;;;;0.50;0.40;;;;;;;25.52;42.21;95299.22;5048966;28;20937;-63
2023/05/20 10:12:02;;;;;;;0.50;0.30;;;;;;;25.68;41.34;95302.53;5071287;28;20429;-63
2023/05/20 10:14:43;;;;;;;0.87;0.50;;;;;;;25.16;40.29;95276.91;5071199;28;20926;-63
2023/05/20 10:17:21;;;;;;;0.73;0.73;;;;;;;25.67;42.65;95293.63;5071571;28;20470;-63
2023/05/20 10:19:50;;;;;;;0.53;0.50;;;;;;;26.52;41.30;95285.81;5071685;28;20948;-62
2023/05/20 10:22:28;;;;;;;0.40;0.40;;;;;;;25.79;38.67;95285.28;5071296;28;20540;-62
2023/05/20 10:25:01;;;;;;;1.07;0.97;;;;;;;25.07;39.07;95281.00;5071400;28;20492;-63
2023/05/20 10:27:29;;;;;;;0.80;0.77;;;;;;;25.30;39.62;95278.28;5071362;28;20489;-63
2023/05/20 10:29:58;;;;;;;1.13;1.13;;;;;;;25.18;39.15;95274.59;5071414;28;20445;-63
2023/05/20 10:32:27;;;;;;;1.03;0.70;;;;;;;24.79;39.01;95275.88;5071385;28;20957;-63
2023/05/20 10:35:00;;;;;;;9.67;0.70;;;;;;;24.54;39.03;95280.03;5071767;28;20503;-63
2023/05/20 10:37:32;;;;;;;0.60;0.50;;;;;;;25.50;39.10;95271.66;5071734;28;20438;-63
2023/05/20 10:40:07;;;;;;;0.67;0.60;;;;;;;25.57;39.12;95269.03;5071615;28;20984;-63
2023/05/20 10:42:35;;;;;;;0.50;0.40;;;;;;;25.16;39.59;95262.56;5070986;28;20490;-64
2023/05/20 10:45:05;;;;;;;0.50;0.40;;;;;;;25.65;38.96;95259.84;5071322;28;20433;-64
2023/05/20 10:47:33;;;;;;;0.60;0.60;;;;;;;25.17;39.58;95229.63;5071131;28;20912;-64
2023/05/20 10:50:03;;;;;;;0.40;0.30;;;;;;;25.61;38.46;95246.22;5071386;28;20438;-63
2023/05/20 10:52:36;;;;;;;0.50;0.47;;;;;;;25.17;41.37;95242.44;5071031;28;20453;-63
2023/05/20 10:55:06;;;;;;;5.23;1.40;;;;;;;24.90;38.58;95259.78;5071122;28;20530;-64
2023/05/20 10:57:35;;;;;;;0.70;0.70;;;;;;;24.64;37.86;95255.06;5045739;28;20507;-65
2023/05/20 11:00:05;;;;;;;7.73;0.90;;;;;;;24.87;39.39;95258.56;5070639;28;21033;-64
2023/05/20 11:02:34;;;;;;;1.13;1.03;;;;;;;24.79;39.01;95254.19;5071846;28;20441;-63
2023/05/20 11:05:05;;;;;;;0.50;0.50;;;;;;;24.62;39.42;95244.56;5074708;28;20984;-63
2023/05/20 11:07:35;;;;;;;0.40;0.30;;;;;;;25.46;38.95;95243.66;5074964;28;20469;-64
2023/05/20 11:10:08;;;;;;;0.50;0.40;;;;;;;26.96;37.07;95240.47;5074547;28;20942;-63
2023/05/20 11:12:37;;;;;;;0.33;0.30;;;;;;;28.49;35.76;95215.75;5074921;28;20444;-64
2023/05/20 11:15:06;;;;;;;0.30;0.20;;;;;;;29.78;33.78;95213.50;5074188;28;20433;-64
2023/05/20 11:17:35;;;;;;;4.10;0.77;;;;;;;29.97;32.42;95216.56;5074989;28;20448;-64
2023/05/20 11:20:04;;;;;;;0.40;0.40;;;;;;;30.46;31.14;95209.38;5074511;28;20509;-64
2023/05/20 11:22:34;;;;;;;0.50;0.47;;;;;;;31.41;29.96;95209.47;5074740;28;20441;-65
2023/05/20 11:25:06;;;;;;;0.70;0.60;;;;;;;30.91;30.28;95213.03;5074831;28;20494;-65
2023/05/20 11:27:34;;;;;;;0.40;0.40;;;;;;;30.77;29.60;95206.44;5074104;28;20554;-66
2023/05/20 11:30:04;;;;;;;0.70;0.60;;;;;;;31.07;30.27;95207.81;5074701;28;20489;-67
2023/05/20 11:32:32;;;;;;;1.07;1.07;;;;;;;30.33;31.33;95208.22;5074083;28;20512;-67
2023/05/20 11:35:01;;;;;;;0.60;0.60;;;;;;;28.17;34.05;95104.69;5074490;28;20433;-65
2023/05/20 11:37:30;;;;;;;1.13;0.50;;;;;;;27.58;34.31;95222.31;5074136;28;20437;-63
2023/05/20 11:40:08;;;;;;;0.40;0.40;;;;;;;27.12;33.47;95218.47;5074439;28;20499;-63